This is the latest recevied weather packets stored in our database for station/object KC1HBM. If no packets are shown the sender has not sent any weather packets the latest 10 day(s).
| Time | Temp. | Humidity | Pressure | Rain* | Wind** | Luminosity | Snow |
|---|---|---|---|---|---|---|---|
| 1777660445 | 16.11° C | 50% | 1005.1 hPa | 0 mm | - | 532 W/m² | - |
| 1777660141 | 16.67° C | 51% | 1004.9 hPa | 0 mm | - | 179 W/m² | - |
| 1777659838 | 16.67° C | 53% | 1004.7 hPa | 0 mm | - | 264 W/m² | - |
| 1777659535 | 15.56° C | 59% | 1005.2 hPa | 0 mm | - | 170 W/m² | - |
| 1777659232 | 15° C | 63% | 1005 hPa | 0 mm | - | 168 W/m² | - |
| 1777658929 | 13.89° C | 66% | 1005.3 hPa | 0 mm | - | 149 W/m² | - |
| 1777658625 | 16.11° C | 61% | 1005 hPa | 0 mm | - | 182 W/m² | - |
| 1777658323 | 15.56° C | 54% | 1005 hPa | 0 mm | - | 185 W/m² | - |
| 1777658019 | 15° C | 56% | 1005.3 hPa | 0 mm | - | 133 W/m² | - |
| 1777657716 | 15.56° C | 52% | 1005.1 hPa | 0 mm | - | 132 W/m² | - |
| 1777657413 | 15.56° C | 55% | 1005.2 hPa | 0 mm | - | 482 W/m² | - |
| 1777657111 | 15.56° C | 55% | 1005.1 hPa | 0 mm | - | 170 W/m² | - |
| 1777656809 | 15.56° C | 51% | 1004.9 hPa | 0 mm | - | 277 W/m² | - |
| 1777656503 | 15.56° C | 53% | 1005.1 hPa | 0 mm | - | 170 W/m² | - |
| 1777656199 | 15.56° C | 53% | 1005 hPa | 0 mm | - | 209 W/m² | - |
| 1777655895 | 16.67° C | 55% | 1005.2 hPa | 0 mm | - | 189 W/m² | - |
| 1777655600 | 16.11° C | 53% | 1005.3 hPa | 0 mm | - | 973 W/m² | - |
| 1777655289 | 15° C | 57% | 1005.2 hPa | 0 mm | - | 263 W/m² | - |
| 1777654986 | 15° C | 58% | 1005.1 hPa | 0 mm | - | 163 W/m² | - |
| 1777654683 | 15.56° C | 56% | 1005.1 hPa | 0 mm | - | 279 W/m² | - |
| 1777654381 | 15.56° C | 57% | 1005.2 hPa | 0 mm | - | 949 W/m² | - |
| 1777654078 | 15° C | 61% | 1005.5 hPa | 0 mm | - | 288 W/m² | - |
| 1777653775 | 15.56° C | 59% | 1005.5 hPa | 0 mm | - | 211 W/m² | - |
| 1777653471 | 14.44° C | 64% | 1005.5 hPa | 0 mm | - | 184 W/m² | - |
| 1777653169 | 14.44° C | 61% | 1005.6 hPa | 0 mm | - | 143 W/m² | - |
* Rain latest hour (hover to see other rain measurements)
** Current wind speed in m/s (hover to see current wind gust speed)